createdAt,value
2022-10-19T00:02:21.845Z,100226.00
2022-10-19T00:05:24.770Z,100223.75
2022-10-19T00:08:27.781Z,100219.94
2022-10-19T00:11:31.762Z,100219.81
2022-10-19T00:14:34.376Z,100224.81
2022-10-19T00:17:37.286Z,100213.69
2022-10-19T00:20:39.868Z,100225.53
2022-10-19T00:23:44.012Z,100216.75
2022-10-19T00:26:46.653Z,100222.09
2022-10-19T00:29:49.521Z,100216.28
2022-10-19T00:32:52.138Z,100217.72
2022-10-19T00:35:55.002Z,100217.09
2022-10-19T00:38:59.141Z,100198.09
2022-10-19T00:42:02.074Z,100212.56
2022-10-19T00:45:12.879Z,100188.50
2022-10-19T00:48:25.752Z,100200.94
2022-10-19T00:51:29.553Z,100195.12
2022-10-19T00:54:33.790Z,100194.53
2022-10-19T00:57:36.926Z,100181.75
2022-10-19T01:00:39.867Z,100186.72
2022-10-19T01:03:42.801Z,100178.72
2022-10-19T01:06:45.888Z,100168.28
2022-10-19T01:09:48.614Z,100179.19
2022-10-19T01:13:00.293Z,100185.38
2022-10-19T01:16:15.336Z,100153.88
2022-10-19T01:19:59.571Z,100150.34
2022-10-19T01:23:11.319Z,100159.09
2022-10-19T01:26:22.986Z,100153.06
2022-10-19T01:29:25.527Z,100155.53
2022-10-19T01:32:51.718Z,100156.03
2022-10-19T01:36:09.462Z,100163.34
2022-10-19T01:39:20.873Z,100153.97
2022-10-19T01:42:39.976Z,100130.56
2022-10-19T01:45:50.709Z,100136.97
2022-10-19T01:48:59.071Z,100130.47
2022-10-19T01:52:09.355Z,100135.37
2022-10-19T01:55:15.658Z,100131.44
2022-10-19T01:58:28.061Z,100127.94
2022-10-19T02:01:34.071Z,100129.25
2022-10-19T02:04:38.453Z,100125.37
2022-10-19T02:07:45.156Z,100109.44
2022-10-19T02:10:48.990Z,100122.16
2022-10-19T02:14:00.158Z,100105.22
2022-10-19T02:17:08.109Z,100106.06
2022-10-19T02:20:11.275Z,100113.25
2022-10-19T02:23:18.871Z,100114.63
2022-10-19T02:26:22.036Z,100113.78
2022-10-19T02:29:24.900Z,100126.97
2022-10-19T02:32:28.194Z,100121.16
2022-10-19T02:35:31.261Z,100144.69
2022-10-19T02:38:33.956Z,100126.09
2022-10-19T02:41:42.710Z,100115.66
2022-10-19T02:44:57.307Z,100105.78
2022-10-19T02:48:08.823Z,100107.72
2022-10-19T02:51:28.578Z,100119.56
2022-10-19T02:54:31.907Z,100115.41
2022-10-19T02:57:34.714Z,100101.97
2022-10-19T03:00:38.068Z,100105.84
2022-10-19T03:03:40.682Z,100121.25
2022-10-19T03:06:43.798Z,100119.84
2022-10-19T03:09:46.504Z,100128.91
2022-10-19T03:12:49.292Z,100128.91
2022-10-19T03:15:52.418Z,100110.22
2022-10-19T03:18:55.219Z,100127.81
2022-10-19T03:21:57.898Z,100113.25
2022-10-19T03:25:00.742Z,100135.22
2022-10-19T03:28:03.355Z,100131.38
2022-10-19T03:31:06.319Z,100128.34
2022-10-19T03:34:08.884Z,100135.22
2022-10-19T03:37:13.431Z,100147.81
2022-10-19T03:40:19.361Z,100140.38
2022-10-19T03:43:22.157Z,100145.87
2022-10-19T03:46:24.991Z,100142.25
2022-10-19T03:49:27.927Z,100164.50
2022-10-19T03:52:30.625Z,100163.38
2022-10-19T03:55:33.541Z,100171.03
2022-10-19T03:58:38.168Z,100157.81
2022-10-19T04:01:44.157Z,100178.97
2022-10-19T04:04:47.138Z,100171.53
2022-10-19T04:07:49.664Z,100178.75
2022-10-19T04:10:53.043Z,100174.38
2022-10-19T04:13:57.112Z,100169.44
2022-10-19T04:17:03.397Z,100164.16
2022-10-19T04:20:06.442Z,100180.09
2022-10-19T04:23:10.987Z,100185.53
2022-10-19T04:26:13.798Z,100163.81
2022-10-19T04:29:19.157Z,100148.38
2022-10-19T04:32:21.672Z,100173.63
2022-10-19T04:35:24.539Z,100181.84
2022-10-19T04:38:29.814Z,100175.50
2022-10-19T04:41:33.378Z,100165.87
2022-10-19T04:44:35.880Z,100176.09
2022-10-19T04:47:38.782Z,100186.31
2022-10-19T04:50:42.880Z,100175.38
2022-10-19T04:53:59.536Z,100172.06
2022-10-19T04:57:02.534Z,100192.19
2022-10-19T05:00:06.343Z,100186.22
2022-10-19T05:03:08.891Z,100176.94
2022-10-19T05:06:12.659Z,100188.75
2022-10-19T05:09:15.217Z,100178.25
2022-10-19T05:12:18.152Z,100181.03
2022-10-19T05:15:20.649Z,100191.97
2022-10-19T05:18:23.613Z,100175.75
2022-10-19T05:21:27.748Z,100187.59
2022-10-19T05:24:32.563Z,100184.28
2022-10-19T05:27:35.429Z,100192.75
2022-10-19T05:30:43.349Z,100189.94
2022-10-19T05:33:48.032Z,100176.72
2022-10-19T05:36:50.904Z,100195.12
2022-10-19T05:39:54.797Z,100198.16
2022-10-19T05:42:57.594Z,100195.66
2022-10-19T05:46:08.376Z,100211.09
2022-10-19T05:49:13.254Z,100195.66
2022-10-19T05:52:17.783Z,100220.47
2022-10-19T05:55:20.636Z,100214.66
2022-10-19T05:58:23.609Z,100207.16
2022-10-19T06:01:27.533Z,100222.03
2022-10-19T06:04:30.552Z,100232.69
2022-10-19T06:07:33.331Z,100231.41
2022-10-19T06:10:38.206Z,100239.84
2022-10-19T06:13:41.770Z,100237.41
2022-10-19T06:16:46.075Z,100234.84
2022-10-19T06:19:48.893Z,100240.31
2022-10-19T06:22:51.701Z,100238.25
2022-10-19T06:25:54.311Z,100237.44
2022-10-19T06:29:00.451Z,100241.84
2022-10-19T06:32:03.317Z,100255.81
2022-10-19T06:35:06.519Z,100247.09
2022-10-19T06:38:10.034Z,100255.75
2022-10-19T06:41:13.456Z,100246.03
2022-10-19T06:44:16.003Z,100254.13
2022-10-19T06:47:18.773Z,100257.09
2022-10-19T06:50:21.451Z,100246.31
2022-10-19T06:53:24.771Z,100258.06
2022-10-19T06:56:27.860Z,100266.53
2022-10-19T06:59:30.733Z,100256.78
2022-10-19T07:02:33.473Z,100251.63
2022-10-19T07:05:36.307Z,100250.87
2022-10-19T07:08:40.249Z,100260.97
2022-10-19T07:11:46.105Z,100268.53
2022-10-19T07:14:49.051Z,100273.75
2022-10-19T07:17:53.022Z,100279.59
2022-10-19T07:20:57.869Z,100280.16
2022-10-19T07:24:01.065Z,100291.16
2022-10-19T07:27:03.942Z,100291.13
2022-10-19T07:30:07.574Z,100287.63
2022-10-19T07:33:10.163Z,100270.00
2022-10-19T07:36:14.259Z,100277.47
2022-10-19T07:39:17.248Z,100292.53
2022-10-19T07:45:28.122Z,100294.41
2022-10-19T07:48:31.031Z,100294.13
2022-10-19T07:51:33.726Z,100297.44
2022-10-19T07:54:36.486Z,100285.97
2022-10-19T07:57:40.707Z,100291.03
2022-10-19T08:00:44.890Z,100287.22
2022-10-19T08:07:11.356Z,100280.25
2022-10-19T08:10:15.131Z,100283.63
2022-10-19T08:13:17.800Z,100290.75
2022-10-19T08:16:28.636Z,100282.94
2022-10-19T08:19:31.232Z,100293.69
2022-10-19T08:22:34.531Z,100295.03
2022-10-19T08:25:37.370Z,100287.16
2022-10-19T08:28:40.439Z,100300.28
2022-10-19T08:31:44.592Z,100313.62
2022-10-19T08:34:47.385Z,100310.97
2022-10-19T08:37:50.153Z,100307.41
2022-10-19T08:41:24.799Z,100307.84
2022-10-19T08:44:37.725Z,100307.75
2022-10-19T08:47:58.188Z,100298.31
2022-10-19T08:51:01.491Z,100307.00
2022-10-19T08:54:12.230Z,100298.03
2022-10-19T08:57:21.130Z,100297.63
2022-10-19T09:00:50.303Z,100300.00
2022-10-19T09:04:02.210Z,100298.69
2022-10-19T09:07:20.443Z,100299.69
2022-10-19T09:10:29.051Z,100302.44
2022-10-19T09:13:41.633Z,100307.75
2022-10-19T09:17:02.753Z,100300.41
2022-10-19T09:20:19.149Z,100301.19
2022-10-19T09:23:46.677Z,100301.91
2022-10-19T09:26:54.479Z,100291.97
2022-10-19T09:30:01.417Z,100299.22
2022-10-19T09:33:06.086Z,100276.84
2022-10-19T09:36:18.196Z,100299.22
2022-10-19T09:39:29.565Z,100305.22
2022-10-19T09:42:34.690Z,100301.69
2022-10-19T09:45:46.169Z,100311.03
2022-10-19T09:48:53.442Z,100313.16
2022-10-19T09:51:56.320Z,100295.63
2022-10-19T09:55:05.884Z,100306.16
2022-10-19T09:58:15.122Z,100308.34
2022-10-19T10:01:43.095Z,100307.69
2022-10-19T10:04:54.743Z,100297.59
2022-10-19T10:07:57.410Z,100303.12
2022-10-19T10:11:14.604Z,100291.47
2022-10-19T10:14:36.700Z,100294.41
2022-10-19T10:17:39.535Z,100281.09
2022-10-19T10:21:13.474Z,100282.34
2022-10-19T10:24:19.178Z,100284.16
2022-10-19T10:27:37.106Z,100276.47
2022-10-19T10:30:40.178Z,100281.47
2022-10-19T10:33:46.191Z,100287.25
2022-10-19T10:36:53.724Z,100278.91
2022-10-19T10:40:01.863Z,100275.66
2022-10-19T10:43:19.059Z,100278.22
2022-10-19T10:46:27.317Z,100270.38
2022-10-19T10:49:35.395Z,100267.34
2022-10-19T10:52:38.425Z,100256.00
2022-10-19T10:55:55.353Z,100253.69
2022-10-19T10:59:12.326Z,100259.44
2022-10-19T11:02:20.811Z,100254.31
2022-10-19T11:06:02.877Z,100239.78
2022-10-19T11:09:28.672Z,100245.44
2022-10-19T11:12:39.862Z,100247.91
2022-10-19T11:16:11.223Z,100241.00
2022-10-19T11:19:41.296Z,100219.22
2022-10-19T11:22:49.720Z,100238.59
2022-10-19T11:26:04.273Z,100216.94
2022-10-19T11:29:25.638Z,100231.31
2022-10-19T11:32:58.520Z,100215.69
2022-10-19T11:36:13.105Z,100207.28
2022-10-19T11:39:25.733Z,100213.03
2022-10-19T11:42:40.246Z,100213.47
2022-10-19T11:46:03.946Z,100212.12
2022-10-19T11:49:18.876Z,100192.19
2022-10-19T11:52:41.709Z,100200.13
2022-10-19T11:56:02.343Z,100209.66
2022-10-19T11:59:28.591Z,100208.44
2022-10-19T12:03:05.333Z,100202.78
2022-10-19T12:06:29.702Z,100214.00
2022-10-19T12:09:48.128Z,100190.84
2022-10-19T12:12:58.803Z,100197.44
2022-10-19T12:16:03.621Z,100192.94
2022-10-19T12:19:15.966Z,100184.91
2022-10-19T12:22:29.940Z,100184.84
2022-10-19T12:25:35.217Z,100182.84
2022-10-19T12:28:41.870Z,100165.94
2022-10-19T12:31:45.487Z,100174.44
2022-10-19T12:35:04.661Z,100177.94
2022-10-19T12:38:30.361Z,100175.34
2022-10-19T12:41:52.148Z,100170.31
2022-10-19T12:45:22.487Z,100174.81
2022-10-19T12:48:25.400Z,100179.56
2022-10-19T12:51:46.233Z,100169.47
2022-10-19T12:54:48.799Z,100167.66
2022-10-19T12:58:19.635Z,100173.34
2022-10-19T13:01:42.158Z,100179.87
2022-10-19T13:04:53.201Z,100185.31
2022-10-19T13:07:56.188Z,100184.19
2022-10-19T13:11:06.291Z,100178.00
2022-10-19T13:14:47.919Z,100174.56
2022-10-19T13:17:51.933Z,100174.28
2022-10-19T13:20:54.940Z,100165.22
2022-10-19T13:24:23.800Z,100164.56
2022-10-19T13:27:27.318Z,100165.41
2022-10-19T13:30:37.005Z,100174.94
2022-10-19T13:33:46.556Z,100172.91
2022-10-19T13:37:03.106Z,100173.06
2022-10-19T13:40:23.630Z,100168.19
2022-10-19T13:43:33.278Z,100183.53
2022-10-19T13:47:12.401Z,100185.59
2022-10-19T13:50:43.740Z,100168.66
2022-10-19T13:54:16.532Z,100173.91
2022-10-19T13:57:38.145Z,100172.28
2022-10-19T14:00:59.637Z,100166.19
2022-10-19T14:04:36.308Z,100156.03
2022-10-19T14:07:49.975Z,100165.41
2022-10-19T14:11:03.887Z,100152.47
2022-10-19T14:14:09.130Z,100162.69
2022-10-19T14:17:42.407Z,100152.22
2022-10-19T14:20:57.901Z,100152.81
2022-10-19T14:24:00.878Z,100159.28
2022-10-19T14:27:06.967Z,100152.75
2022-10-19T14:30:32.673Z,100150.91
2022-10-19T14:33:46.327Z,100146.81
2022-10-19T14:36:49.939Z,100143.56
2022-10-19T14:40:26.449Z,100135.59
2022-10-19T14:43:33.697Z,100141.97
2022-10-19T14:46:36.330Z,100139.81
2022-10-19T14:49:39.175Z,100148.97
2022-10-19T14:52:41.917Z,100145.16
2022-10-19T14:55:45.600Z,100128.16
2022-10-19T14:58:56.737Z,100145.34
2022-10-19T15:02:03.210Z,100139.81
2022-10-19T15:05:14.539Z,100131.53
2022-10-19T15:08:31.840Z,100137.59
2022-10-19T15:11:40.431Z,100148.66
2022-10-19T15:14:44.631Z,100148.16
2022-10-19T15:17:56.653Z,100153.13
2022-10-19T15:21:15.757Z,100150.69
2022-10-19T15:24:27.386Z,100155.37
2022-10-19T15:27:33.619Z,100147.38
2022-10-19T15:30:36.749Z,100155.94
2022-10-19T15:33:44.383Z,100146.59
2022-10-19T15:36:59.758Z,100132.59
2022-10-19T15:40:10.987Z,100148.84
2022-10-19T15:43:34.756Z,100153.25
2022-10-19T15:47:23.629Z,100138.38
2022-10-19T15:50:38.678Z,100149.91
2022-10-19T15:53:41.453Z,100153.16
2022-10-19T15:56:46.607Z,100159.13
2022-10-19T15:59:49.578Z,100165.91
2022-10-19T16:02:52.171Z,100168.78
2022-10-19T16:05:55.172Z,100166.31
2022-10-19T16:08:58.831Z,100165.00
2022-10-19T16:12:01.833Z,100177.75
2022-10-19T16:15:04.847Z,100183.28
2022-10-19T16:18:11.287Z,100177.34
2022-10-19T16:21:15.523Z,100189.72
2022-10-19T16:24:18.601Z,100194.16
2022-10-19T16:27:21.337Z,100193.03
2022-10-19T16:30:24.505Z,100203.50
2022-10-19T16:33:28.564Z,100202.69
2022-10-19T16:36:34.424Z,100201.97
2022-10-19T16:39:37.237Z,100203.63
2022-10-19T16:42:40.470Z,100209.41
2022-10-19T16:45:44.270Z,100195.09
2022-10-19T16:48:47.429Z,100227.19
2022-10-19T16:51:54.700Z,100223.69
2022-10-19T16:55:00.394Z,100220.19
2022-10-19T16:58:03.247Z,100222.47
2022-10-19T17:01:18.353Z,100203.31
2022-10-19T17:04:21.234Z,100233.34
2022-10-19T17:07:24.698Z,100236.91
2022-10-19T17:10:31.255Z,100237.75
2022-10-19T17:13:34.392Z,100228.16
2022-10-19T17:16:38.732Z,100249.41
2022-10-19T17:19:41.959Z,100261.16
2022-10-19T17:22:44.934Z,100250.13
2022-10-19T17:25:48.911Z,100279.06
2022-10-19T17:28:55.653Z,100271.34
2022-10-19T17:31:58.920Z,100286.38
2022-10-19T17:35:01.798Z,100279.03
2022-10-19T17:38:04.925Z,100279.16
2022-10-19T17:41:11.153Z,100284.59
2022-10-19T17:44:16.707Z,100260.34
2022-10-19T17:47:19.723Z,100285.84
2022-10-19T17:50:23.158Z,100280.72
2022-10-19T17:53:26.659Z,100292.81
2022-10-19T17:56:31.087Z,100294.72
2022-10-19T17:59:46.592Z,100293.97
2022-10-19T18:02:55.967Z,100299.28
2022-10-19T18:06:34.776Z,100285.78
2022-10-19T18:09:37.692Z,100293.81
2022-10-19T18:12:40.891Z,100296.53
2022-10-19T18:15:44.006Z,100310.66
2022-10-19T18:18:50.090Z,100323.69
2022-10-19T18:21:53.464Z,100322.75
2022-10-19T18:24:56.699Z,100313.50
2022-10-19T18:27:59.555Z,100321.25
2022-10-19T18:31:11.833Z,100319.75
2022-10-19T18:34:16.072Z,100322.69
2022-10-19T18:37:19.413Z,100314.25
2022-10-19T18:40:22.430Z,100316.22
2022-10-19T18:43:25.505Z,100330.53
2022-10-19T18:46:28.370Z,100299.66
2022-10-19T18:49:32.146Z,100323.78
2022-10-19T18:52:37.912Z,100322.28
2022-10-19T18:55:42.013Z,100324.00
2022-10-19T18:58:45.593Z,100338.41
2022-10-19T19:01:48.839Z,100345.09
2022-10-19T19:04:52.282Z,100353.19
2022-10-19T19:07:56.041Z,100336.09
2022-10-19T19:11:13.449Z,100370.38
2022-10-19T19:14:21.091Z,100364.56
2022-10-19T19:17:25.083Z,100361.72
2022-10-19T19:20:32.834Z,100355.87
2022-10-19T19:23:36.161Z,100357.75
2022-10-19T19:26:42.071Z,100362.22
2022-10-19T19:29:44.898Z,100377.00
2022-10-19T19:32:48.027Z,100382.16
2022-10-19T19:35:52.290Z,100372.53
2022-10-19T19:38:57.239Z,100385.94
2022-10-19T19:42:00.152Z,100383.97
2022-10-19T19:45:08.308Z,100388.91
2022-10-19T19:48:12.191Z,100400.03
2022-10-19T19:51:21.223Z,100379.97
2022-10-19T19:54:24.401Z,100377.19
2022-10-19T19:57:28.095Z,100405.63
2022-10-19T20:00:31.239Z,100396.16
2022-10-19T20:03:34.333Z,100401.06
2022-10-19T20:06:39.638Z,100400.34
2022-10-19T20:09:43.107Z,100406.13
2022-10-19T20:12:47.321Z,100398.09
2022-10-19T20:15:50.398Z,100416.97
2022-10-19T20:19:08.405Z,100396.75
2022-10-19T20:22:13.117Z,100412.22
2022-10-19T20:25:19.689Z,100388.50
2022-10-19T20:28:27.555Z,100416.25
2022-10-19T20:31:31.910Z,100423.19
2022-10-19T20:34:36.049Z,100402.38
2022-10-19T20:37:38.936Z,100432.00
2022-10-19T20:40:42.763Z,100411.62
2022-10-19T20:43:49.533Z,100438.38
2022-10-19T20:46:54.077Z,100418.41
2022-10-19T20:49:57.124Z,100410.00
2022-10-19T20:53:00.384Z,100429.50
2022-10-19T20:56:07.824Z,100410.53
2022-10-19T20:59:14.734Z,100418.84
2022-10-19T21:02:17.641Z,100400.78
2022-10-19T21:05:20.708Z,100401.31
2022-10-19T21:08:23.321Z,100390.34
2022-10-19T21:11:31.694Z,100378.63
2022-10-19T21:14:34.294Z,100391.25
2022-10-19T21:17:37.183Z,100393.44
2022-10-19T21:20:40.150Z,100418.38
2022-10-19T21:23:45.392Z,100410.88
2022-10-19T21:26:48.329Z,100419.84
2022-10-19T21:29:51.388Z,100401.25
2022-10-19T21:32:54.057Z,100414.31
2022-10-19T21:35:59.923Z,100422.63
2022-10-19T21:39:02.701Z,100433.63
2022-10-19T21:42:06.307Z,100435.59
2022-10-19T21:45:29.179Z,100438.97
2022-10-19T21:48:33.998Z,100420.13
2022-10-19T21:51:53.671Z,100418.28
2022-10-19T21:54:56.610Z,100423.13
2022-10-19T21:57:59.245Z,100426.47
2022-10-19T22:01:07.534Z,100429.19
2022-10-19T22:04:17.200Z,100427.78
2022-10-19T22:07:19.776Z,100428.22
2022-10-19T22:10:23.087Z,100431.59
2022-10-19T22:13:25.799Z,100413.22
2022-10-19T22:16:29.714Z,100440.34
2022-10-19T22:19:32.302Z,100456.19
2022-10-19T22:22:35.379Z,100450.72
2022-10-19T22:25:38.201Z,100441.94
2022-10-19T22:28:41.143Z,100452.12
2022-10-19T22:31:44.563Z,100463.59
2022-10-19T22:34:47.332Z,100471.09
2022-10-19T22:37:49.929Z,100466.88
2022-10-19T22:41:49.020Z,100455.16
2022-10-19T22:45:10.232Z,100461.78
2022-10-19T22:48:13.262Z,100453.59
2022-10-19T22:51:15.924Z,100468.31
2022-10-19T22:54:18.809Z,100466.56
2022-10-19T22:57:21.481Z,100492.31
2022-10-19T23:00:24.451Z,100490.38
2022-10-19T23:03:27.202Z,100484.47
2022-10-19T23:06:30.067Z,100482.56
2022-10-19T23:09:32.979Z,100475.88
2022-10-19T23:12:36.263Z,100463.44
2022-10-19T23:15:43.068Z,100480.72
2022-10-19T23:18:46.869Z,100480.69
2022-10-19T23:21:49.502Z,100496.47
2022-10-19T23:24:52.411Z,100490.91
2022-10-19T23:27:55.142Z,100502.09
2022-10-19T23:30:58.904Z,100502.94
2022-10-19T23:34:01.637Z,100488.09
2022-10-19T23:37:04.542Z,100488.31
2022-10-19T23:40:07.727Z,100499.84
2022-10-19T23:43:11.652Z,100507.13
2022-10-19T23:46:14.753Z,100490.50
2022-10-19T23:49:17.904Z,100513.38
2022-10-19T23:52:20.499Z,100509.69
2022-10-19T23:55:23.334Z,100522.63
2022-10-19T23:58:26.308Z,100519.56
